Terminal Aerodrome Forecast
Issued by NWS Charleston, WV

Current Version | Previous Version | Text Only | Print | Product List | Glossary Off
Versions: 1 2 3 4 5 6 7 8 9 10 11 12 13 14 15 16 17 18 19 20 21

000
FTUS41 KRLX 040500 RRA
TAFCRW
TAF
KCRW 040543Z 0406/0506 22010G16KT 5SM -RA OVC020
     FM040700 31007KT 6SM -RA BR BKN008 OVC012
     FM041800 33005KT 2SM +RA BR OVC008
     FM050200 36008G13KT 3SM -PL OVC012
     FM050500 35009G16KT 1SM -SNPL OVC008=

USA.gov is the U.S. government's official web portal to all federal, state and local government web resources and services.